sensor_id;sensor_type;location;lat;lon;timestamp;pressure;altitude;pressure_sealevel;temperature;humidity
35435;BME280;21556;55.782;37.528;2023-04-29T00:02:17;99507.03;;;8.62;100.00
35435;BME280;21556;55.782;37.528;2023-04-29T00:04:48;99502.78;;;8.67;100.00
35435;BME280;21556;55.782;37.528;2023-04-29T00:07:16;99499.50;;;7.99;100.00
35435;BME280;21556;55.782;37.528;2023-04-29T00:09:46;99504.16;;;8.92;100.00
35435;BME280;21556;55.782;37.528;2023-04-29T00:12:14;99501.97;;;8.31;100.00
35435;BME280;21556;55.782;37.528;2023-04-29T00:14:41;99509.00;;;8.35;100.00
35435;BME280;21556;55.782;37.528;2023-04-29T00:17:10;99509.16;;;8.80;100.00
35435;BME280;21556;55.782;37.528;2023-04-29T00:19:40;99507.06;;;9.06;100.00
35435;BME280;21556;55.782;37.528;2023-04-29T00:22:07;99506.06;;;9.00;100.00
35435;BME280;21556;55.782;37.528;2023-04-29T00:24:33;99505.59;;;9.19;100.00
35435;BME280;21556;55.782;37.528;2023-04-29T00:26:59;99494.25;;;8.76;100.00
35435;BME280;21556;55.782;37.528;2023-04-29T00:29:27;99498.72;;;8.03;100.00
35435;BME280;21556;55.782;37.528;2023-04-29T00:31:54;99494.56;;;8.49;100.00
35435;BME280;21556;55.782;37.528;2023-04-29T00:34:21;99495.94;;;8.35;100.00
35435;BME280;21556;55.782;37.528;2023-04-29T00:36:49;99485.03;;;8.53;100.00
35435;BME280;21556;55.782;37.528;2023-04-29T00:39:17;99489.66;;;8.25;100.00
35435;BME280;21556;55.782;37.528;2023-04-29T00:41:46;99488.03;;;7.23;100.00
35435;BME280;21556;55.782;37.528;2023-04-29T00:44:14;99481.09;;;8.32;100.00
35435;BME280;21556;55.782;37.528;2023-04-29T00:46:44;99493.69;;;8.12;100.00
35435;BME280;21556;55.782;37.528;2023-04-29T00:49:12;99492.56;;;8.00;100.00
35435;BME280;21556;55.782;37.528;2023-04-29T00:51:41;99489.06;;;7.63;100.00
35435;BME280;21556;55.782;37.528;2023-04-29T00:54:07;99480.22;;;8.32;100.00
35435;BME280;21556;55.782;37.528;2023-04-29T00:56:36;99475.50;;;7.79;100.00
35435;BME280;21556;55.782;37.528;2023-04-29T00:59:04;99479.44;;;8.36;100.00
35435;BME280;21556;55.782;37.528;2023-04-29T01:01:31;99474.22;;;8.78;100.00
35435;BME280;21556;55.782;37.528;2023-04-29T01:03:57;99468.44;;;8.11;100.00
35435;BME280;21556;55.782;37.528;2023-04-29T01:06:53;99477.00;;;8.86;100.00
35435;BME280;21556;55.782;37.528;2023-04-29T01:12:38;99471.25;;;7.83;100.00
35435;BME280;21556;55.782;37.528;2023-04-29T01:15:11;99476.38;;;8.55;100.00
35435;BME280;21556;55.782;37.528;2023-04-29T01:18:20;99474.56;;;8.51;100.00
35435;BME280;21556;55.782;37.528;2023-04-29T01:20:51;99482.22;;;8.06;100.00
35435;BME280;21556;55.782;37.528;2023-04-29T01:23:17;99481.22;;;7.99;100.00
35435;BME280;21556;55.782;37.528;2023-04-29T01:25:46;99480.22;;;7.94;100.00
35435;BME280;21556;55.782;37.528;2023-04-29T01:28:42;99484.28;;;8.20;100.00
35435;BME280;21556;55.782;37.528;2023-04-29T01:31:51;99488.75;;;8.64;100.00
35435;BME280;21556;55.782;37.528;2023-04-29T01:40:42;99480.97;;;8.28;100.00
35435;BME280;21556;55.782;37.528;2023-04-29T01:43:14;99467.97;;;8.29;100.00
35435;BME280;21556;55.782;37.528;2023-04-29T01:45:45;99476.19;;;7.70;100.00
35435;BME280;21556;55.782;37.528;2023-04-29T01:48:13;99462.06;;;8.38;100.00
35435;BME280;21556;55.782;37.528;2023-04-29T01:50:41;99468.75;;;8.27;100.00
35435;BME280;21556;55.782;37.528;2023-04-29T01:53:15;99462.22;;;8.46;100.00
35435;BME280;21556;55.782;37.528;2023-04-29T01:55:43;99474.53;;;7.74;100.00
35435;BME280;21556;55.782;37.528;2023-04-29T01:58:19;99471.03;;;8.11;100.00
35435;BME280;21556;55.782;37.528;2023-04-29T02:01:06;99467.31;;;7.64;100.00
35435;BME280;21556;55.782;37.528;2023-04-29T02:03:38;99473.31;;;7.96;100.00
35435;BME280;21556;55.782;37.528;2023-04-29T02:06:08;99480.47;;;7.68;100.00
35435;BME280;21556;55.782;37.528;2023-04-29T02:08:35;99489.16;;;7.67;100.00
35435;BME280;21556;55.782;37.528;2023-04-29T02:11:03;99478.19;;;7.81;100.00
35435;BME280;21556;55.782;37.528;2023-04-29T02:13:44;99479.50;;;8.01;100.00
35435;BME280;21556;55.782;37.528;2023-04-29T02:16:13;99489.25;;;8.07;100.00
35435;BME280;21556;55.782;37.528;2023-04-29T02:18:54;99490.25;;;8.13;100.00
35435;BME280;21556;55.782;37.528;2023-04-29T02:21:21;99487.03;;;8.25;100.00
35435;BME280;21556;55.782;37.528;2023-04-29T02:23:50;99491.25;;;8.20;100.00
35435;BME280;21556;55.782;37.528;2023-04-29T02:26:17;99488.34;;;8.42;100.00
35435;BME280;21556;55.782;37.528;2023-04-29T02:28:46;99485.84;;;8.11;100.00
35435;BME280;21556;55.782;37.528;2023-04-29T02:31:12;99486.41;;;8.37;100.00
35435;BME280;21556;55.782;37.528;2023-04-29T02:33:39;99488.66;;;8.20;100.00
35435;BME280;21556;55.782;37.528;2023-04-29T02:36:08;99487.41;;;7.66;100.00
35435;BME280;21556;55.782;37.528;2023-04-29T02:38:36;99494.22;;;7.96;100.00
35435;BME280;21556;55.782;37.528;2023-04-29T02:41:04;99491.81;;;8.43;100.00
35435;BME280;21556;55.782;37.528;2023-04-29T02:43:30;99496.13;;;8.03;100.00
35435;BME280;21556;55.782;37.528;2023-04-29T02:45:57;99501.78;;;8.23;100.00
35435;BME280;21556;55.782;37.528;2023-04-29T02:48:27;99508.84;;;7.89;100.00
35435;BME280;21556;55.782;37.528;2023-04-29T02:50:53;99520.47;;;8.02;100.00
35435;BME280;21556;55.782;37.528;2023-04-29T02:53:23;99523.41;;;8.16;100.00
35435;BME280;21556;55.782;37.528;2023-04-29T02:55:50;99529.03;;;8.33;100.00
35435;BME280;21556;55.782;37.528;2023-04-29T02:58:17;99527.47;;;8.03;100.00
35435;BME280;21556;55.782;37.528;2023-04-29T03:00:45;99530.38;;;8.15;100.00
35435;BME280;21556;55.782;37.528;2023-04-29T03:03:11;99537.09;;;8.06;100.00
35435;BME280;21556;55.782;37.528;2023-04-29T03:05:39;99554.09;;;7.55;100.00
35435;BME280;21556;55.782;37.528;2023-04-29T03:08:06;99560.81;;;7.79;100.00
35435;BME280;21556;55.782;37.528;2023-04-29T03:10:33;99562.13;;;7.96;100.00
35435;BME280;21556;55.782;37.528;2023-04-29T03:13:00;99557.50;;;7.84;100.00
35435;BME280;21556;55.782;37.528;2023-04-29T03:15:26;99557.81;;;7.98;100.00
35435;BME280;21556;55.782;37.528;2023-04-29T03:17:54;99577.22;;;8.08;100.00
35435;BME280;21556;55.782;37.528;2023-04-29T03:20:21;99582.44;;;8.42;100.00
35435;BME280;21556;55.782;37.528;2023-04-29T03:22:48;99581.78;;;7.82;100.00
35435;BME280;21556;55.782;37.528;2023-04-29T03:25:17;99586.28;;;7.87;100.00
35435;BME280;21556;55.782;37.528;2023-04-29T03:27:46;99594.25;;;7.92;100.00
35435;BME280;21556;55.782;37.528;2023-04-29T03:30:13;99603.34;;;7.41;100.00
35435;BME280;21556;55.782;37.528;2023-04-29T03:32:48;99607.03;;;7.81;100.00
35435;BME280;21556;55.782;37.528;2023-04-29T03:35:21;99604.69;;;7.92;100.00
35435;BME280;21556;55.782;37.528;2023-04-29T03:38:10;99617.00;;;7.96;100.00
35435;BME280;21556;55.782;37.528;2023-04-29T03:40:40;99618.44;;;7.21;100.00
35435;BME280;21556;55.782;37.528;2023-04-29T03:43:08;99621.22;;;8.26;100.00
35435;BME280;21556;55.782;37.528;2023-04-29T03:45:38;99616.53;;;7.79;100.00
35435;BME280;21556;55.782;37.528;2023-04-29T03:48:06;99625.38;;;7.21;100.00
35435;BME280;21556;55.782;37.528;2023-04-29T03:50:33;99626.47;;;6.97;100.00
35435;BME280;21556;55.782;37.528;2023-04-29T03:53:02;99630.38;;;6.83;100.00
35435;BME280;21556;55.782;37.528;2023-04-29T03:55:30;99629.75;;;7.22;100.00
35435;BME280;21556;55.782;37.528;2023-04-29T03:57:56;99628.34;;;7.03;100.00
35435;BME280;21556;55.782;37.528;2023-04-29T04:00:22;99623.72;;;7.88;100.00
35435;BME280;21556;55.782;37.528;2023-04-29T04:02:56;99628.03;;;7.86;100.00
35435;BME280;21556;55.782;37.528;2023-04-29T04:05:25;99622.03;;;7.88;100.00
35435;BME280;21556;55.782;37.528;2023-04-29T04:08:03;99623.78;;;7.89;100.00
35435;BME280;21556;55.782;37.528;2023-04-29T04:10:56;99635.19;;;7.93;100.00
35435;BME280;21556;55.782;37.528;2023-04-29T04:13:35;99625.06;;;7.40;100.00
35435;BME280;21556;55.782;37.528;2023-04-29T04:16:04;99620.59;;;8.01;100.00
35435;BME280;21556;55.782;37.528;2023-04-29T04:18:33;99627.28;;;7.90;100.00
35435;BME280;21556;55.782;37.528;2023-04-29T04:21:09;99620.09;;;8.16;100.00
35435;BME280;21556;55.782;37.528;2023-04-29T04:23:40;99607.06;;;8.17;100.00
35435;BME280;21556;55.782;37.528;2023-04-29T04:26:07;99611.22;;;8.09;100.00
35435;BME280;21556;55.782;37.528;2023-04-29T04:28:54;99611.31;;;8.47;100.00
35435;BME280;21556;55.782;37.528;2023-04-29T04:31:37;99618.50;;;8.21;100.00
35435;BME280;21556;55.782;37.528;2023-04-29T04:34:06;99624.75;;;7.93;100.00
35435;BME280;21556;55.782;37.528;2023-04-29T04:36:35;99632.13;;;7.76;100.00
35435;BME280;21556;55.782;37.528;2023-04-29T04:39:01;99634.13;;;7.85;100.00
35435;BME280;21556;55.782;37.528;2023-04-29T04:41:28;99627.72;;;7.74;100.00
35435;BME280;21556;55.782;37.528;2023-04-29T04:43:58;99616.50;;;8.11;100.00
35435;BME280;21556;55.782;37.528;2023-04-29T04:46:46;99616.97;;;8.67;100.00
35435;BME280;21556;55.782;37.528;2023-04-29T04:49:25;99608.63;;;8.46;100.00
35435;BME280;21556;55.782;37.528;2023-04-29T04:51:53;99612.56;;;8.28;100.00
35435;BME280;21556;55.782;37.528;2023-04-29T04:54:21;99617.03;;;8.32;100.00
35435;BME280;21556;55.782;37.528;2023-04-29T04:56:53;99626.06;;;8.10;100.00
35435;BME280;21556;55.782;37.528;2023-04-29T04:59:24;99625.84;;;8.74;100.00
35435;BME280;21556;55.782;37.528;2023-04-29T05:01:55;99612.25;;;8.51;100.00
35435;BME280;21556;55.782;37.528;2023-04-29T05:04:22;99625.09;;;8.07;100.00
35435;BME280;21556;55.782;37.528;2023-04-29T05:06:50;99612.44;;;8.58;100.00
35435;BME280;21556;55.782;37.528;2023-04-29T05:09:19;99615.13;;;9.01;100.00
35435;BME280;21556;55.782;37.528;2023-04-29T05:11:47;99634.03;;;8.16;100.00
35435;BME280;21556;55.782;37.528;2023-04-29T05:14:20;99638.88;;;8.01;100.00
35435;BME280;21556;55.782;37.528;2023-04-29T05:16:49;99637.81;;;7.93;100.00
35435;BME280;21556;55.782;37.528;2023-04-29T05:19:19;99632.53;;;8.25;100.00
35435;BME280;21556;55.782;37.528;2023-04-29T05:21:45;99624.09;;;8.02;100.00
35435;BME280;21556;55.782;37.528;2023-04-29T05:24:17;99626.63;;;7.99;100.00
35435;BME280;21556;55.782;37.528;2023-04-29T05:26:44;99625.75;;;8.69;100.00
35435;BME280;21556;55.782;37.528;2023-04-29T05:29:10;99622.13;;;8.62;100.00
35435;BME280;21556;55.782;37.528;2023-04-29T05:31:50;99634.19;;;8.23;100.00
35435;BME280;21556;55.782;37.528;2023-04-29T05:34:39;99632.06;;;8.41;100.00
35435;BME280;21556;55.782;37.528;2023-04-29T05:37:13;99638.56;;;8.24;100.00
35435;BME280;21556;55.782;37.528;2023-04-29T05:39:59;99631.00;;;8.00;100.00
35435;BME280;21556;55.782;37.528;2023-04-29T05:42:31;99636.22;;;8.34;100.00
35435;BME280;21556;55.782;37.528;2023-04-29T05:45:01;99644.38;;;7.79;100.00
35435;BME280;21556;55.782;37.528;2023-04-29T05:47:31;99645.75;;;7.97;100.00
35435;BME280;21556;55.782;37.528;2023-04-29T05:50:01;99652.44;;;7.88;100.00
35435;BME280;21556;55.782;37.528;2023-04-29T05:52:47;99651.31;;;8.44;100.00
35435;BME280;21556;55.782;37.528;2023-04-29T05:55:19;99643.06;;;8.64;100.00
35435;BME280;21556;55.782;37.528;2023-04-29T05:57:48;99659.50;;;8.58;100.00
35435;BME280;21556;55.782;37.528;2023-04-29T06:00:14;99665.84;;;8.33;100.00
35435;BME280;21556;55.782;37.528;2023-04-29T06:02:42;99675.16;;;7.89;100.00
35435;BME280;21556;55.782;37.528;2023-04-29T06:05:12;99667.28;;;8.22;100.00
35435;BME280;21556;55.782;37.528;2023-04-29T06:08:03;99680.72;;;9.08;100.00
35435;BME280;21556;55.782;37.528;2023-04-29T06:10:43;99678.00;;;8.66;100.00
35435;BME280;21556;55.782;37.528;2023-04-29T06:13:12;99677.63;;;8.51;100.00
35435;BME280;21556;55.782;37.528;2023-04-29T06:15:38;99680.38;;;8.57;100.00
35435;BME280;21556;55.782;37.528;2023-04-29T06:18:04;99685.81;;;9.02;100.00
35435;BME280;21556;55.782;37.528;2023-04-29T06:20:32;99690.97;;;8.99;100.00
35435;BME280;21556;55.782;37.528;2023-04-29T06:22:59;99684.13;;;9.04;100.00
35435;BME280;21556;55.782;37.528;2023-04-29T06:25:28;99691.22;;;9.10;100.00
35435;BME280;21556;55.782;37.528;2023-04-29T06:27:58;99697.63;;;9.24;100.00
35435;BME280;21556;55.782;37.528;2023-04-29T06:30:28;99707.28;;;8.87;100.00
35435;BME280;21556;55.782;37.528;2023-04-29T06:32:54;99699.91;;;8.71;100.00
35435;BME280;21556;55.782;37.528;2023-04-29T06:35:21;99693.44;;;8.93;100.00
35435;BME280;21556;55.782;37.528;2023-04-29T06:38:03;99698.78;;;9.37;100.00
35435;BME280;21556;55.782;37.528;2023-04-29T06:40:56;99688.94;;;9.69;100.00
35435;BME280;21556;55.782;37.528;2023-04-29T06:43:49;99699.25;;;10.04;100.00
35435;BME280;21556;55.782;37.528;2023-04-29T06:46:42;99704.41;;;9.99;100.00
35435;BME280;21556;55.782;37.528;2023-04-29T06:49:37;99701.31;;;9.76;100.00
35435;BME280;21556;55.782;37.528;2023-04-29T06:52:09;99703.34;;;9.89;100.00
35435;BME280;21556;55.782;37.528;2023-04-29T06:54:36;99705.09;;;9.91;100.00
35435;BME280;21556;55.782;37.528;2023-04-29T06:57:02;99707.63;;;9.42;100.00
35435;BME280;21556;55.782;37.528;2023-04-29T06:59:33;99713.25;;;9.60;100.00
35435;BME280;21556;55.782;37.528;2023-04-29T07:02:14;99713.81;;;9.46;100.00
35435;BME280;21556;55.782;37.528;2023-04-29T07:04:40;99717.28;;;9.45;100.00
35435;BME280;21556;55.782;37.528;2023-04-29T07:07:07;99723.44;;;8.71;100.00
35435;BME280;21556;55.782;37.528;2023-04-29T07:09:33;99719.81;;;9.84;100.00
35435;BME280;21556;55.782;37.528;2023-04-29T07:12:00;99712.75;;;9.37;100.00
35435;BME280;21556;55.782;37.528;2023-04-29T07:14:29;99726.75;;;9.39;100.00
35435;BME280;21556;55.782;37.528;2023-04-29T07:16:58;99732.59;;;9.67;100.00
35435;BME280;21556;55.782;37.528;2023-04-29T07:19:24;99733.09;;;9.92;100.00
35435;BME280;21556;55.782;37.528;2023-04-29T07:21:50;99732.88;;;10.75;100.00
35435;BME280;21556;55.782;37.528;2023-04-29T07:24:16;99732.34;;;10.99;100.00
35435;BME280;21556;55.782;37.528;2023-04-29T07:26:45;99743.06;;;10.11;100.00
35435;BME280;21556;55.782;37.528;2023-04-29T07:29:15;99739.22;;;9.94;100.00
35435;BME280;21556;55.782;37.528;2023-04-29T07:31:42;99739.28;;;10.41;100.00
35435;BME280;21556;55.782;37.528;2023-04-29T07:34:09;99744.59;;;10.00;100.00
35435;BME280;21556;55.782;37.528;2023-04-29T07:36:36;99752.09;;;10.25;100.00
35435;BME280;21556;55.782;37.528;2023-04-29T07:39:02;99749.81;;;10.44;100.00
35435;BME280;21556;55.782;37.528;2023-04-29T07:41:28;99749.56;;;10.78;100.00
35435;BME280;21556;55.782;37.528;2023-04-29T07:43:54;99743.53;;;11.45;100.00
35435;BME280;21556;55.782;37.528;2023-04-29T07:46:20;99742.63;;;11.41;100.00
35435;BME280;21556;55.782;37.528;2023-04-29T07:48:48;99741.78;;;11.47;100.00
35435;BME280;21556;55.782;37.528;2023-04-29T07:51:15;99742.03;;;11.62;100.00
35435;BME280;21556;55.782;37.528;2023-04-29T07:53:41;99745.28;;;11.46;100.00
35435;BME280;21556;55.782;37.528;2023-04-29T07:56:08;99751.97;;;11.85;100.00
35435;BME280;21556;55.782;37.528;2023-04-29T07:58:34;99760.44;;;12.35;100.00
35435;BME280;21556;55.782;37.528;2023-04-29T08:01:07;99760.97;;;12.05;100.00
35435;BME280;21556;55.782;37.528;2023-04-29T08:03:35;99763.44;;;12.75;100.00
35435;BME280;21556;55.782;37.528;2023-04-29T08:06:04;99769.69;;;12.01;100.00
35435;BME280;21556;55.782;37.528;2023-04-29T08:08:32;99762.22;;;12.39;100.00
35435;BME280;21556;55.782;37.528;2023-04-29T08:10:58;99778.88;;;11.67;100.00
35435;BME280;21556;55.782;37.528;2023-04-29T08:13:24;99781.25;;;11.48;100.00
35435;BME280;21556;55.782;37.528;2023-04-29T08:15:50;99781.41;;;12.31;100.00
35435;BME280;21556;55.782;37.528;2023-04-29T08:18:17;99767.41;;;13.31;100.00
35435;BME280;21556;55.782;37.528;2023-04-29T08:20:42;99780.94;;;12.68;100.00
35435;BME280;21556;55.782;37.528;2023-04-29T08:23:08;99774.13;;;14.95;100.00
35435;BME280;21556;55.782;37.528;2023-04-29T08:25:34;99775.91;;;14.75;100.00
35435;BME280;21556;55.782;37.528;2023-04-29T08:28:00;99777.66;;;15.02;100.00
35435;BME280;21556;55.782;37.528;2023-04-29T08:30:26;99772.34;;;15.09;100.00
35435;BME280;21556;55.782;37.528;2023-04-29T08:32:52;99780.22;;;15.60;100.00
35435;BME280;21556;55.782;37.528;2023-04-29T08:35:18;99776.75;;;15.16;100.00
35435;BME280;21556;55.782;37.528;2023-04-29T08:37:46;99780.13;;;14.19;100.00
35435;BME280;21556;55.782;37.528;2023-04-29T08:40:13;99764.44;;;14.80;100.00
35435;BME280;21556;55.782;37.528;2023-04-29T08:42:40;99774.84;;;14.17;100.00
35435;BME280;21556;55.782;37.528;2023-04-29T08:45:09;99774.13;;;15.04;100.00
35435;BME280;21556;55.782;37.528;2023-04-29T08:47:38;99758.72;;;16.40;100.00
35435;BME280;21556;55.782;37.528;2023-04-29T08:50:08;99766.13;;;15.52;100.00
35435;BME280;21556;55.782;37.528;2023-04-29T08:52:34;99759.94;;;15.63;100.00
35435;BME280;21556;55.782;37.528;2023-04-29T08:55:02;99752.00;;;17.16;98.18
35435;BME280;21556;55.782;37.528;2023-04-29T08:57:31;99759.13;;;15.29;100.00
35435;BME280;21556;55.782;37.528;2023-04-29T09:00:08;99778.44;;;15.63;100.00
35435;BME280;21556;55.782;37.528;2023-04-29T09:02:43;99784.69;;;15.12;100.00
35435;BME280;21556;55.782;37.528;2023-04-29T09:05:11;99795.19;;;14.46;100.00
35435;BME280;21556;55.782;37.528;2023-04-29T09:07:38;99796.16;;;15.19;100.00
35435;BME280;21556;55.782;37.528;2023-04-29T09:10:05;99789.88;;;15.64;100.00
35435;BME280;21556;55.782;37.528;2023-04-29T09:12:33;99784.59;;;15.79;100.00
35435;BME280;21556;55.782;37.528;2023-04-29T09:15:07;99780.06;;;16.07;100.00
35435;BME280;21556;55.782;37.528;2023-04-29T09:17:38;99777.31;;;16.29;90.32
35435;BME280;21556;55.782;37.528;2023-04-29T09:22:59;99783.66;;;17.31;75.49
35435;BME280;21556;55.782;37.528;2023-04-29T09:25:26;99782.59;;;16.38;63.95
35435;BME280;21556;55.782;37.528;2023-04-29T09:27:56;99779.75;;;17.69;60.19
35435;BME280;21556;55.782;37.528;2023-04-29T09:30:23;99786.09;;;18.29;59.46
35435;BME280;21556;55.782;37.528;2023-04-29T09:33:05;99787.91;;;17.50;57.92
35435;BME280;21556;55.782;37.528;2023-04-29T09:35:33;99788.53;;;16.74;59.65
35435;BME280;21556;55.782;37.528;2023-04-29T09:38:15;99781.91;;;18.12;53.75
35435;BME280;21556;55.782;37.528;2023-04-29T09:40:42;99775.81;;;17.22;52.10
35435;BME280;21556;55.782;37.528;2023-04-29T09:43:18;99787.19;;;17.31;54.52
35435;BME280;21556;55.782;37.528;2023-04-29T09:45:47;99779.44;;;17.98;58.84
35435;BME280;21556;55.782;37.528;2023-04-29T09:48:14;99769.22;;;19.45;49.13
35435;BME280;21556;55.782;37.528;2023-04-29T09:50:42;99795.53;;;18.52;62.99
35435;BME280;21556;55.782;37.528;2023-04-29T09:53:10;99794.28;;;18.11;60.81
35435;BME280;21556;55.782;37.528;2023-04-29T09:55:57;99801.78;;;16.78;67.99
35435;BME280;21556;55.782;37.528;2023-04-29T09:58:28;99801.28;;;17.38;67.19
35435;BME280;21556;55.782;37.528;2023-04-29T10:00:58;99793.75;;;18.51;55.02
35435;BME280;21556;55.782;37.528;2023-04-29T10:03:32;99797.72;;;18.86;52.86
35435;BME280;21556;55.782;37.528;2023-04-29T10:06:00;99803.03;;;17.41;61.68
35435;BME280;21556;55.782;37.528;2023-04-29T10:08:31;99820.41;;;16.55;63.12
35435;BME280;21556;55.782;37.528;2023-04-29T10:11:00;99819.66;;;16.32;76.01
35435;BME280;21556;55.782;37.528;2023-04-29T10:13:27;99817.09;;;16.13;70.22
35435;BME280;21556;55.782;37.528;2023-04-29T10:18:54;99807.97;;;16.71;53.98
35435;BME280;21556;55.782;37.528;2023-04-29T10:21:29;99811.72;;;16.32;53.82
35435;BME280;21556;55.782;37.528;2023-04-29T10:23:57;99817.03;;;16.26;57.38
35435;BME280;21556;55.782;37.528;2023-04-29T10:26:31;99825.09;;;16.01;60.79
35435;BME280;21556;55.782;37.528;2023-04-29T10:29:01;99822.09;;;16.76;58.37
35435;BME280;21556;55.782;37.528;2023-04-29T10:31:32;99833.13;;;15.31;60.55
35435;BME280;21556;55.782;37.528;2023-04-29T10:34:00;99840.19;;;15.20;65.01
35435;BME280;21556;55.782;37.528;2023-04-29T10:36:32;99842.69;;;14.46;65.84
35435;BME280;21556;55.782;37.528;2023-04-29T10:39:03;99858.63;;;14.80;70.01
35435;BME280;21556;55.782;37.528;2023-04-29T10:41:44;99856.03;;;14.98;74.26
35435;BME280;21556;55.782;37.528;2023-04-29T10:44:15;99863.09;;;15.68;73.08
35435;BME280;21556;55.782;37.528;2023-04-29T10:46:42;99858.69;;;15.04;70.06
35435;BME280;21556;55.782;37.528;2023-04-29T10:49:11;99858.69;;;15.38;65.47
35435;BME280;21556;55.782;37.528;2023-04-29T10:51:47;99843.69;;;15.72;60.55
35435;BME280;21556;55.782;37.528;2023-04-29T10:54:16;99856.06;;;15.29;57.59
35435;BME280;21556;55.782;37.528;2023-04-29T10:56:53;99854.25;;;15.35;60.63
35435;BME280;21556;55.782;37.528;2023-04-29T11:02:11;99852.50;;;15.74;63.04
35435;BME280;21556;55.782;37.528;2023-04-29T11:05:06;99858.69;;;15.44;59.00
35435;BME280;21556;55.782;37.528;2023-04-29T11:07:33;99865.75;;;15.14;59.04
35435;BME280;21556;55.782;37.528;2023-04-29T11:10:01;99868.31;;;14.68;61.98
35435;BME280;21556;55.782;37.528;2023-04-29T11:12:27;99871.78;;;14.63;65.40
35435;BME280;21556;55.782;37.528;2023-04-29T11:14:53;99881.47;;;14.56;68.07
35435;BME280;21556;55.782;37.528;2023-04-29T11:17:34;99891.19;;;14.71;62.04
35435;BME280;21556;55.782;37.528;2023-04-29T11:20:02;99888.56;;;14.85;72.56
35435;BME280;21556;55.782;37.528;2023-04-29T11:22:34;99880.72;;;15.78;66.19
35435;BME280;21556;55.782;37.528;2023-04-29T11:25:05;99875.41;;;15.63;62.02
35435;BME280;21556;55.782;37.528;2023-04-29T11:27:37;99875.41;;;15.38;64.69
35435;BME280;21556;55.782;37.528;2023-04-29T11:30:04;99876.31;;;15.33;59.57
35435;BME280;21556;55.782;37.528;2023-04-29T11:32:35;99882.44;;;15.01;55.49
35435;BME280;21556;55.782;37.528;2023-04-29T11:37:36;99871.91;;;15.44;46.75
35435;BME280;21556;55.782;37.528;2023-04-29T11:40:05;99869.25;;;15.43;49.93
35435;BME280;21556;55.782;37.528;2023-04-29T11:43:04;99870.13;;;15.57;49.60
35435;BME280;21556;55.782;37.528;2023-04-29T11:45:34;99868.38;;;15.56;49.80
35435;BME280;21556;55.782;37.528;2023-04-29T11:48:00;99875.44;;;15.11;49.62
35435;BME280;21556;55.782;37.528;2023-04-29T11:50:29;99871.91;;;15.58;53.69
35435;BME280;21556;55.782;37.528;2023-04-29T11:52:58;99872.75;;;15.54;47.02
35435;BME280;21556;55.782;37.528;2023-04-29T11:55:28;99869.25;;;15.84;53.58
35435;BME280;21556;55.782;37.528;2023-04-29T11:57:54;99872.81;;;15.69;47.83
35435;BME280;21556;55.782;37.528;2023-04-29T12:00:20;99870.97;;;16.02;45.67
35435;BME280;21556;55.782;37.528;2023-04-29T12:02:46;99858.63;;;15.99;44.19
35435;BME280;21556;55.782;37.528;2023-04-29T12:05:12;99861.34;;;15.66;46.98
35435;BME280;21556;55.782;37.528;2023-04-29T12:07:40;99855.09;;;15.93;44.50
35435;BME280;21556;55.782;37.528;2023-04-29T12:10:09;99850.59;;;16.24;42.16
35435;BME280;21556;55.782;37.528;2023-04-29T12:12:36;99856.72;;;16.33;41.93
35435;BME280;21556;55.782;37.528;2023-04-29T12:15:07;99860.47;;;15.36;50.32
35435;BME280;21556;55.782;37.528;2023-04-29T12:17:35;99859.56;;;15.37;50.43
35435;BME280;21556;55.782;37.528;2023-04-29T12:20:01;99872.78;;;15.23;55.25
35435;BME280;21556;55.782;37.528;2023-04-29T12:22:32;99870.13;;;15.58;48.44
35435;BME280;21556;55.782;37.528;2023-04-29T12:24:58;99856.00;;;15.79;52.57
35435;BME280;21556;55.782;37.528;2023-04-29T12:27:24;99861.22;;;16.08;48.50
35435;BME280;21556;55.782;37.528;2023-04-29T12:29:51;99861.19;;;16.19;50.46
35435;BME280;21556;55.782;37.528;2023-04-29T12:32:21;99850.59;;;16.21;43.44
35435;BME280;21556;55.782;37.528;2023-04-29T12:34:49;99852.50;;;15.77;46.76
35435;BME280;21556;55.782;37.528;2023-04-29T12:37:15;99854.97;;;16.31;44.35
35435;BME280;21556;55.782;37.528;2023-04-29T12:39:42;99854.78;;;16.66;39.87
35435;BME280;21556;55.782;37.528;2023-04-29T12:42:15;99866.59;;;15.61;43.21
35435;BME280;21556;55.782;37.528;2023-04-29T12:44:44;99855.94;;;16.10;40.13
35435;BME280;21556;55.782;37.528;2023-04-29T12:47:11;99856.78;;;16.12;43.08
35435;BME280;21556;55.782;37.528;2023-04-29T12:49:42;99858.59;;;16.07;40.33
35435;BME280;21556;55.782;37.528;2023-04-29T12:52:08;99854.06;;;16.36;40.14
35435;BME280;21556;55.782;37.528;2023-04-29T12:54:36;99853.97;;;16.52;38.87
35435;BME280;21556;55.782;37.528;2023-04-29T12:57:02;99859.34;;;16.36;38.13
35435;BME280;21556;55.782;37.528;2023-04-29T12:59:28;99853.19;;;16.39;38.45
35435;BME280;21556;55.782;37.528;2023-04-29T13:01:54;99860.25;;;16.35;41.11
35435;BME280;21556;55.782;37.528;2023-04-29T13:04:20;99855.75;;;16.48;37.43
35435;BME280;21556;55.782;37.528;2023-04-29T13:06:46;99854.13;;;16.18;41.14
35435;BME280;21556;55.782;37.528;2023-04-29T13:09:12;99851.47;;;16.23;37.66
35435;BME280;21556;55.782;37.528;2023-04-29T13:11:38;99846.97;;;16.40;35.92
35435;BME280;21556;55.782;37.528;2023-04-29T13:14:04;99846.22;;;16.20;37.58
35435;BME280;21556;55.782;37.528;2023-04-29T13:16:34;99851.66;;;15.69;42.33
35435;BME280;21556;55.782;37.528;2023-04-29T13:19:00;99848.03;;;15.99;38.04
35435;BME280;21556;55.782;37.528;2023-04-29T13:21:26;99858.69;;;15.76;39.03
35435;BME280;21556;55.782;37.528;2023-04-29T13:23:55;99849.84;;;15.79;37.54
35435;BME280;21556;55.782;37.528;2023-04-29T13:26:21;99855.16;;;15.48;38.00